Impacts TAF Board
For situational awareness. Not to be used for flight planning purposes.
IDs:

KIAH - Houston/Bush Intl, TX, US

Issued at 1911 UTC 08 Feb 2023
Updated at 1941 UTC 08 Feb 2023
Potential Impact None Slight Moderate High
Time1931Z 08/20Z 08/21Z 08/22Z 08/23Z 09/00Z 09/01Z 09/02Z 09/03Z 09/04Z 09/05Z 09/06Z 09/07Z 09/08Z>>
Type OBS PRVL
  [TEMP]  
PRVL
  [TEMP]  
PRVL PRVL PRVL PRVL PRVL PRVL PRVL PRVL PRVL PRVL PRVL
VIS 7 >6
  [5]  
>6
  [5]  
>6 >6 >6 >6 >6 >6 >6 >6 >6 >6 >6
CIG 35 35
  [35]  
35
  [35]  
35 15 15 50 50 50 -- -- -- -- --
Cover OVC BKN
  [BKN]  
BKN
  [BKN]  
BKN BKN BKN BKN BKN BKN SCT SCT SCT SCT SCT
FltCat VFR VFR
  [MVFR]  
VFR
  [MVFR]  
VFR MVFR MVFR VFR VFR VFR VFR VFR VFR VFR VFR
WX TS VCTS
  [TSRA BR]  
VCTS
  [TSRA BR]  
VCTS -- -- -- -- -- -- -- -- -- --
WDir 280 200
[200]
200
[200]
200 280 280 320 320 320 330 330 330 330 330
WSpd 20 12
  [12]  
12
  [12]  
12 12 12 10 10 10 5 5 5 5 5
WGst 27 18
  [18]  
18
  [18]  
18 20 20 -- -- -- -- -- -- -- --
WSHgt -- --
[--]
--
[--]
-- -- -- -- -- -- -- -- -- -- --
WSDir -- --
[--]
--
[--]
-- -- -- -- -- -- -- -- -- -- --
WSSpd -- --
[--]
--
[--]
-- -- -- -- -- -- -- -- -- -- --
R08/26
XWnd 3 -11 -11 -11 2 2 8 8 8 4 4 4 4 4
XGst 5 -17 -17 -17 3 3 -- -- -- -- -- -- -- --
HWnd -20 -4 -4 -4 -12 -12 -6 -6 -6 -3 -3 -3 -3 -3
HGst -27 -6 -6 -6 -20 -20 -- -- -- -- -- -- -- --
R09/27
XWnd 3 -11 -11 -11 2 2 8 8 8 4 4 4 4 4
XGst 5 -17 -17 -17 3 3 -- -- -- -- -- -- -- --
HWnd -20 -4 -4 -4 -12 -12 -6 -6 -6 -3 -3 -3 -3 -3
HGst -27 -6 -6 -6 -20 -20 -- -- -- -- -- -- -- --
R15/33
XWnd -16 -9 -9 -9 -9 -9 -2 -2 -2 -0 -0 -0 -0 -0
XGst -21 -13 -13 -13 -16 -16 -- -- -- -- -- -- -- --
HWnd -12 8 8 8 -7 -7 -10 -10 -10 -5 -5 -5 -5 -5
HGst -17 12 12 12 -12 -12 -- -- -- -- -- -- -- --

NOTE: LAMP data beyond the time of the TAF data is denoted as LAMP in Type and colored magenta.

Raw TAF
KIAH 081911Z 0819/0924 20012G18KT P6SM VCTS BKN035CB BKN250
  TEMPO 0819/0822 5SM TSRA BR
  FM082300 28012G20KT P6SM BKN015
  FM090100 32010KT P6SM SCT013 BKN050
  FM090400 33005KT P6SM SCT250
  FM091200 VRB04KT P6SM FEW250


Raw METAR
KIAH 081931Z 28020G27KT 7SM TS FEW007 BKN035CB OVC060 17/14 A2996 RMK AO2 TSB31 FRQ LTGIC SW-NW TS AND VCSH SW-NW MOVG NE T01670139
KIAH 081911Z 31017G24KT 10SM BKN035 BKN060 OVC250 20/17 A2995 RMK AO2 LTG DSNT SW AND W CB DSNT SW-NW MOVG NE T02000167
KIAH 081853Z 18009G16KT 150V210 10SM BKN033 BKN070 BKN110 OVC250 24/18 A2993 RMK AO2 LTG DSNT W AND NW SLP136 CB DSNT SW-NW MOVG NE T02440178
KIAH 081819Z 19009G23KT 10SM BKN030 BKN250 25/18 A2996 RMK AO2 SHRA DSNT N AND W T02500183
KIAH 081753Z 19014G22KT 10SM BKN029 BKN250 25/19 A2998 RMK AO2 PK WND 16027/1736 SLP151 T02500189 10256 20211 58008
KIAH 081717Z 17015G22KT 10SM BKN027 BKN250 24/18 A3000 RMK AO2 PK WND 19026/1705 T02440183
KIAH 081653Z 18015G25KT 10SM SCT025 BKN250 24/18 A3001 RMK AO2 PK WND 19027/1639 SLP160 T02440183
KIAH 081635Z 18011G19KT 10SM SCT021 BKN250 24/19 A3000 RMK AO2 T02390189

METAR Board
Radar Display
Forecast Discussion

For situational awareness. Not to be used for flight planning purposes.